Time;durP1;ratioP1;P1;durP2;ratioP2;P2;SDS_P1;SDS_P2;PMS_P1;PMS_P2;Temp;Humidity;BMP_temperature;BMP_pressure;BME280_temperature;BME280_humidity;BME280_pressure;Samples;Min_cycle;Max_cycle;Signal;HPM_P1;HPM_P2
2023/06/15 00:00:50;;;;;;;0.00;0.00;;;;;;;;;;1703536;28;20251;-69
2023/06/15 00:01:42;;;;;;;0.00;0.00;;;;;;;;;;1703683;28;20222;-70
2023/06/15 00:02:33;;;;;;;0.00;0.00;;;;;;;;;;1704596;28;20964;-70
2023/06/15 00:03:26;;;;;;;0.00;0.00;;;;;;;;;;1704768;28;20651;-69
2023/06/15 00:04:17;;;;;;;0.00;0.00;;;;;;;;;;1705030;28;20207;-69
2023/06/15 00:05:08;;;;;;;0.00;0.00;;;;;;;;;;1705201;28;20224;-69
2023/06/15 00:06:00;;;;;;;0.00;0.00;;;;;;;;;;1708770;28;20791;-69
2023/06/15 00:06:51;;;;;;;0.00;0.00;;;;;;;;;;1705344;28;20251;-70
2023/06/15 00:07:43;;;;;;;0.00;0.00;;;;;;;;;;1699590;28;20247;-69
2023/06/15 00:08:34;;;;;;;0.00;0.00;;;;;;;;;;1699951;28;20215;-69
2023/06/15 00:09:26;;;;;;;0.00;0.00;;;;;;;;;;1701260;28;20238;-69
2023/06/15 00:10:18;;;;;;;0.00;0.00;;;;;;;;;;1702151;28;20298;-69
2023/06/15 00:11:10;;;;;;;0.00;0.00;;;;;;;;;;1703884;28;20202;-69
2023/06/15 00:12:01;;;;;;;0.00;0.00;;;;;;;;;;1704947;28;20296;-70
2023/06/15 00:12:53;;;;;;;0.00;0.00;;;;;;;;;;1697901;28;20302;-70
2023/06/15 00:13:44;;;;;;;0.00;0.00;;;;;;;;;;1700416;28;20536;-70
2023/06/15 00:14:37;;;;;;;0.00;0.00;;;;;;;;;;1704546;28;20202;-70
2023/06/15 00:15:29;;;;;;;0.00;0.00;;;;;;;;;;1701252;28;20274;-70
2023/06/15 00:16:20;;;;;;;0.00;0.00;;;;;;;;;;1703530;28;20674;-70
2023/06/15 00:17:12;;;;;;;0.00;0.00;;;;;;;;;;1703735;28;20229;-69
2023/06/15 00:18:03;;;;;;;0.00;0.00;;;;;;;;;;1699794;28;20657;-68
2023/06/15 00:18:55;;;;;;;0.00;0.00;;;;;;;;;;1699077;28;20207;-69
2023/06/15 00:19:46;;;;;;;0.00;0.00;;;;;;;;;;1700583;28;20254;-70
2023/06/15 00:20:37;;;;;;;0.00;0.00;;;;;;;;;;1701617;28;20234;-69
2023/06/15 00:21:30;;;;;;;0.00;0.00;;;;;;;;;;1704900;28;20211;-71
2023/06/15 00:22:26;;;;;;;0.00;0.00;;;;;;;;;;1715297;28;20198;-70
2023/06/15 00:23:18;;;;;;;0.00;0.00;;;;;;;;;;1712915;28;20193;-70
2023/06/15 00:24:09;;;;;;;0.00;0.00;;;;;;;;;;1714766;28;20755;-70
2023/06/15 00:25:01;;;;;;;0.00;0.00;;;;;;;;;;1714640;28;20232;-70
2023/06/15 00:25:52;;;;;;;0.00;0.00;;;;;;;;;;1717046;28;20299;-70
2023/06/15 00:26:44;;;;;;;0.00;0.00;;;;;;;;;;1717572;28;20209;-72
2023/06/15 00:27:35;;;;;;;0.00;0.00;;;;;;;;;;1711125;28;20218;-69
2023/06/15 00:28:27;;;;;;;0.00;0.00;;;;;;;;;;1713584;28;20209;-70
2023/06/15 00:29:18;;;;;;;0.00;0.00;;;;;;;;;;1713452;28;20230;-70
2023/06/15 00:30:12;;;;;;;0.00;0.00;;;;;;;;;;1716499;28;20214;-69
2023/06/15 00:31:03;;;;;;;0.00;0.00;;;;;;;;;;1710663;28;20249;-67
2023/06/15 00:31:55;;;;;;;0.00;0.00;;;;;;;;;;1716072;28;20252;-70
2023/06/15 00:32:46;;;;;;;0.00;0.00;;;;;;;;;;1711142;28;20246;-67
2023/06/15 00:33:37;;;;;;;0.00;0.00;;;;;;;;;;1712740;28;20209;-68
2023/06/15 00:34:30;;;;;;;0.00;0.00;;;;;;;;;;1715016;28;20205;-69
2023/06/15 00:35:21;;;;;;;0.00;0.00;;;;;;;;;;1716507;28;20210;-70
2023/06/15 00:36:13;;;;;;;0.00;0.00;;;;;;;;;;1716555;28;20699;-69
2023/06/15 00:37:05;;;;;;;0.00;0.00;;;;;;;;;;1714384;28;20209;-68
2023/06/15 00:37:57;;;;;;;0.00;0.00;;;;;;;;;;1718237;28;20210;-70
2023/06/15 00:38:48;;;;;;;0.00;0.00;;;;;;;;;;1712365;28;20279;-69
2023/06/15 00:39:39;;;;;;;0.00;0.00;;;;;;;;;;1712583;28;20299;-69
2023/06/15 00:40:31;;;;;;;0.00;0.00;;;;;;;;;;1716266;28;20214;-69
2023/06/15 00:41:22;;;;;;;0.00;0.00;;;;;;;;;;1718630;28;20208;-69
2023/06/15 00:42:13;;;;;;;0.00;0.00;;;;;;;;;;1713613;28;20201;-69
2023/06/15 00:43:05;;;;;;;0.00;0.00;;;;;;;;;;1718521;28;20208;-71
2023/06/15 00:43:56;;;;;;;0.00;0.00;;;;;;;;;;1712164;28;20206;-70
2023/06/15 00:44:48;;;;;;;0.00;0.00;;;;;;;;;;1713998;28;20265;-69
2023/06/15 00:45:40;;;;;;;0.00;0.00;;;;;;;;;;1715446;28;20768;-70
2023/06/15 00:46:33;;;;;;;0.00;0.00;;;;;;;;;;1718646;28;20585;-69
2023/06/15 00:47:24;;;;;;;0.00;0.00;;;;;;;;;;1713411;28;20225;-68
2023/06/15 00:48:15;;;;;;;0.00;0.00;;;;;;;;;;1717681;28;20205;-70
2023/06/15 00:49:07;;;;;;;0.00;0.00;;;;;;;;;;1711648;28;20701;-71
2023/06/15 00:49:59;;;;;;;0.00;0.00;;;;;;;;;;1718536;28;20209;-70
2023/06/15 00:50:51;;;;;;;0.00;0.00;;;;;;;;;;1710543;28;20708;-70
2023/06/15 00:51:43;;;;;;;0.00;0.00;;;;;;;;;;1716718;28;20232;-70
2023/06/15 00:52:35;;;;;;;0.00;0.00;;;;;;;;;;1715126;28;20699;-70
2023/06/15 00:53:26;;;;;;;0.00;0.00;;;;;;;;;;1715590;28;20218;-70
2023/06/15 00:54:21;;;;;;;0.00;0.00;;;;;;;;;;1713085;28;20269;-70
2023/06/15 00:55:13;;;;;;;0.00;0.00;;;;;;;;;;1715509;28;20839;-71
2023/06/15 00:56:06;;;;;;;0.00;0.00;;;;;;;;;;1711134;28;20230;-70
2023/06/15 00:56:58;;;;;;;0.00;0.00;;;;;;;;;;1715997;28;20221;-69
2023/06/15 00:57:50;;;;;;;0.00;0.00;;;;;;;;;;1717504;28;20293;-70
2023/06/15 00:58:41;;;;;;;0.00;0.00;;;;;;;;;;1713573;28;20221;-70
2023/06/15 00:59:34;;;;;;;0.00;0.00;;;;;;;;;;1715311;28;20205;-70
2023/06/15 01:00:25;;;;;;;0.00;0.00;;;;;;;;;;1713522;28;20656;-70
2023/06/15 01:01:18;;;;;;;0.00;0.00;;;;;;;;;;1712795;28;20201;-69
2023/06/15 01:02:12;;;;;;;0.00;0.00;;;;;;;;;;1717371;28;20687;-70
2023/06/15 01:03:04;;;;;;;0.00;0.00;;;;;;;;;;1718215;28;20209;-70
2023/06/15 01:03:57;;;;;;;0.00;0.00;;;;;;;;;;1711769;28;20605;-70
2023/06/15 01:04:49;;;;;;;0.00;0.00;;;;;;;;;;1713603;28;20224;-70
2023/06/15 01:05:44;;;;;;;0.00;0.00;;;;;;;;;;1713770;28;20490;-70
2023/06/15 01:06:41;;;;;;;0.00;0.00;;;;;;;;;;1720852;28;20577;-71
2023/06/15 01:07:35;;;;;;;0.00;0.00;;;;;;;;;;1714978;28;20324;-72
2023/06/15 01:08:26;;;;;;;0.00;0.00;;;;;;;;;;1716516;28;20550;-70
2023/06/15 01:09:20;;;;;;;0.00;0.00;;;;;;;;;;1710856;28;20245;-70
2023/06/15 01:10:12;;;;;;;0.00;0.00;;;;;;;;;;1714810;28;20213;-71
2023/06/15 01:11:04;;;;;;;0.00;0.00;;;;;;;;;;1717818;28;20252;-71
2023/06/15 01:11:56;;;;;;;0.00;0.00;;;;;;;;;;1715914;28;20335;-70
2023/06/15 01:12:50;;;;;;;0.00;0.00;;;;;;;;;;1711034;28;20685;-70
2023/06/15 01:13:42;;;;;;;0.00;0.00;;;;;;;;;;1713359;28;20214;-71
2023/06/15 01:14:35;;;;;;;0.00;0.00;;;;;;;;;;1715914;28;20542;-70
2023/06/15 01:15:26;;;;;;;0.00;0.00;;;;;;;;;;1712463;28;20217;-69
2023/06/15 01:16:22;;;;;;;0.00;0.00;;;;;;;;;;1713241;28;20413;-71
2023/06/15 01:17:15;;;;;;;0.00;0.00;;;;;;;;;;1713452;28;20268;-70
2023/06/15 01:18:09;;;;;;;0.00;0.00;;;;;;;;;;1718382;28;20201;-70
2023/06/15 01:19:01;;;;;;;0.00;0.00;;;;;;;;;;1718027;28;20207;-69
2023/06/15 01:19:57;;;;;;;0.00;0.00;;;;;;;;;;1717918;28;20217;-69
2023/06/15 01:20:53;;;;;;;0.00;0.00;;;;;;;;;;1716211;28;20267;-70
2023/06/15 01:21:45;;;;;;;0.00;0.00;;;;;;;;;;1715182;28;20901;-70
2023/06/15 01:22:45;;;;;;;0.00;0.00;;;;;;;;;;1716050;28;20205;-70
2023/06/15 01:23:41;;;;;;;0.00;0.00;;;;;;;;;;1714103;28;20208;-70
2023/06/15 01:24:36;;;;;;;0.00;0.00;;;;;;;;;;1715290;28;20212;-71
2023/06/15 01:25:33;;;;;;;0.00;0.00;;;;;;;;;;1715468;28;20205;-70
2023/06/15 01:26:28;;;;;;;0.00;0.00;;;;;;;;;;1716325;28;20218;-70
2023/06/15 01:27:21;;;;;;;0.00;0.00;;;;;;;;;;1711062;28;20199;-70
2023/06/15 01:28:12;;;;;;;0.00;0.00;;;;;;;;;;1712407;28;20239;-70
2023/06/15 01:29:04;;;;;;;0.00;0.00;;;;;;;;;;1711476;28;20655;-70
2023/06/15 01:29:56;;;;;;;0.00;0.00;;;;;;;;;;1714340;28;20210;-70
2023/06/15 01:30:48;;;;;;;0.00;0.00;;;;;;;;;;1710371;28;20265;-70
2023/06/15 01:31:40;;;;;;;0.00;0.00;;;;;;;;;;1713664;28;20285;-71
2023/06/15 01:32:32;;;;;;;0.00;0.00;;;;;;;;;;1715216;28;20205;-70
2023/06/15 01:33:24;;;;;;;0.00;0.00;;;;;;;;;;1717047;28;20204;-70
2023/06/15 01:34:15;;;;;;;0.00;0.00;;;;;;;;;;1712853;28;20360;-71
2023/06/15 01:35:08;;;;;;;0.00;0.00;;;;;;;;;;1716614;28;20208;-71
2023/06/15 01:35:59;;;;;;;0.00;0.00;;;;;;;;;;1717553;28;20235;-72
2023/06/15 01:36:50;;;;;;;0.00;0.00;;;;;;;;;;1716034;28;20637;-70
2023/06/15 01:37:42;;;;;;;0.00;0.00;;;;;;;;;;1717048;28;20216;-70
2023/06/15 01:38:33;;;;;;;0.00;0.00;;;;;;;;;;1715315;28;20202;-70
2023/06/15 01:39:25;;;;;;;0.00;0.00;;;;;;;;;;1713549;28;20625;-69
2023/06/15 01:40:17;;;;;;;0.00;0.00;;;;;;;;;;1714509;28;20224;-70
2023/06/15 01:41:08;;;;;;;0.00;0.00;;;;;;;;;;1711208;28;20358;-70
2023/06/15 01:42:02;;;;;;;0.00;0.00;;;;;;;;;;1713568;28;20232;-70
2023/06/15 01:42:53;;;;;;;0.00;0.00;;;;;;;;;;1717579;28;20270;-69
2023/06/15 01:43:46;;;;;;;0.00;0.00;;;;;;;;;;1713196;28;20202;-69
2023/06/15 01:44:38;;;;;;;0.00;0.00;;;;;;;;;;1715763;28;20208;-71
2023/06/15 01:45:31;;;;;;;0.00;0.00;;;;;;;;;;1712587;28;20272;-69
2023/06/15 01:46:23;;;;;;;0.00;0.00;;;;;;;;;;1712300;28;20213;-70
2023/06/15 01:47:16;;;;;;;0.00;0.00;;;;;;;;;;1713649;28;20206;-70
2023/06/15 01:48:07;;;;;;;0.00;0.00;;;;;;;;;;1717979;28;20212;-72
2023/06/15 01:48:59;;;;;;;0.00;0.00;;;;;;;;;;1712118;28;20212;-70
2023/06/15 01:49:51;;;;;;;0.00;0.00;;;;;;;;;;1713431;28;20235;-70
2023/06/15 01:50:43;;;;;;;0.00;0.00;;;;;;;;;;1711549;28;20230;-69
2023/06/15 01:51:34;;;;;;;0.00;0.00;;;;;;;;;;1714403;28;20304;-70
2023/06/15 01:52:26;;;;;;;0.00;0.00;;;;;;;;;;1711397;28;20218;-69
2023/06/15 01:53:17;;;;;;;0.00;0.00;;;;;;;;;;1713154;28;20685;-69
2023/06/15 01:54:09;;;;;;;0.00;0.00;;;;;;;;;;1711675;28;20237;-70
2023/06/15 01:55:00;;;;;;;0.00;0.00;;;;;;;;;;1716639;28;20670;-71
2023/06/15 01:55:52;;;;;;;0.00;0.00;;;;;;;;;;1710119;28;20233;-69
2023/06/15 01:56:43;;;;;;;0.10;0.10;;;;;;;;;;1714995;28;20719;-70
2023/06/15 01:57:37;;;;;;;0.00;0.00;;;;;;;;;;1711376;28;20205;-69
2023/06/15 01:58:28;;;;;;;0.00;0.00;;;;;;;;;;1713425;28;20222;-69
2023/06/15 01:59:20;;;;;;;0.00;0.00;;;;;;;;;;1710156;28;20294;-69
2023/06/15 02:00:12;;;;;;;0.00;0.00;;;;;;;;;;1713726;28;20263;-69
2023/06/15 02:01:04;;;;;;;0.00;0.00;;;;;;;;;;1710490;28;20264;-70
2023/06/15 02:01:55;;;;;;;0.00;0.00;;;;;;;;;;1718082;28;21060;-70
2023/06/15 02:02:46;;;;;;;0.00;0.00;;;;;;;;;;1717437;28;20613;-70
2023/06/15 02:03:38;;;;;;;0.00;0.00;;;;;;;;;;1713943;28;20206;-69
2023/06/15 02:04:29;;;;;;;0.00;0.00;;;;;;;;;;1711014;28;20669;-70
2023/06/15 02:05:21;;;;;;;0.00;0.00;;;;;;;;;;1712415;28;20242;-69
2023/06/15 02:06:12;;;;;;;0.00;0.00;;;;;;;;;;1721879;28;20615;-70
2023/06/15 02:07:04;;;;;;;0.00;0.00;;;;;;;;;;1714611;28;20207;-69
2023/06/15 02:07:55;;;;;;;0.00;0.00;;;;;;;;;;1711074;28;20213;-70
2023/06/15 02:08:47;;;;;;;0.00;0.00;;;;;;;;;;1712948;28;20744;-70
2023/06/15 02:09:38;;;;;;;0.00;0.00;;;;;;;;;;1710600;28;20402;-70
2023/06/15 02:10:30;;;;;;;0.00;0.00;;;;;;;;;;1716003;28;20253;-70
2023/06/15 02:11:21;;;;;;;0.00;0.00;;;;;;;;;;1717657;28;20326;-70
2023/06/15 02:12:13;;;;;;;0.00;0.00;;;;;;;;;;1712231;28;20234;-68
2023/06/15 02:13:06;;;;;;;0.00;0.00;;;;;;;;;;1712278;28;20212;-73
2023/06/15 02:13:59;;;;;;;0.00;0.00;;;;;;;;;;1710951;28;20657;-70
2023/06/15 02:14:50;;;;;;;0.00;0.00;;;;;;;;;;1717868;28;20256;-69
2023/06/15 02:15:42;;;;;;;0.00;0.00;;;;;;;;;;1715063;28;20220;-69
2023/06/15 02:16:33;;;;;;;0.00;0.00;;;;;;;;;;1718926;28;20211;-70
2023/06/15 02:17:28;;;;;;;0.00;0.00;;;;;;;;;;1714208;28;20762;-68
2023/06/15 02:18:20;;;;;;;0.00;0.00;;;;;;;;;;1716874;28;20255;-70
2023/06/15 02:19:13;;;;;;;0.03;0.03;;;;;;;;;;1710846;28;20312;-69
2023/06/15 02:20:05;;;;;;;0.00;0.00;;;;;;;;;;1714377;28;20321;-69
2023/06/15 02:20:57;;;;;;;0.00;0.00;;;;;;;;;;1710340;28;20299;-70
2023/06/15 02:21:48;;;;;;;0.00;0.00;;;;;;;;;;1739997;23;20247;-59
2023/06/15 02:22:40;;;;;;;0.00;0.00;;;;;;;;;;1734891;28;20713;-59
2023/06/15 02:23:32;;;;;;;0.00;0.00;;;;;;;;;;1735643;28;20215;-60
2023/06/15 02:24:23;;;;;;;0.00;0.00;;;;;;;;;;1734832;28;20188;-59
2023/06/15 02:25:15;;;;;;;0.00;0.00;;;;;;;;;;1729978;28;20204;-60
2023/06/15 02:26:07;;;;;;;0.00;0.00;;;;;;;;;;1730545;28;20247;-59
2023/06/15 02:26:59;;;;;;;0.00;0.00;;;;;;;;;;1735468;28;20665;-59
2023/06/15 02:27:50;;;;;;;0.00;0.00;;;;;;;;;;1737631;28;20303;-59
2023/06/15 02:28:44;;;;;;;0.00;0.00;;;;;;;;;;1732333;28;20282;-59
2023/06/15 02:29:35;;;;;;;0.00;0.00;;;;;;;;;;1733149;28;20203;-60
2023/06/15 02:30:27;;;;;;;0.00;0.00;;;;;;;;;;1731579;28;20206;-59
2023/06/15 02:31:18;;;;;;;0.00;0.00;;;;;;;;;;1735469;28;20249;-59
2023/06/15 02:32:10;;;;;;;0.00;0.00;;;;;;;;;;1733685;28;20227;-59
2023/06/15 02:33:02;;;;;;;0.00;0.00;;;;;;;;;;1731377;28;20212;-58
2023/06/15 02:33:54;;;;;;;0.00;0.00;;;;;;;;;;1737277;28;20213;-59
2023/06/15 02:34:45;;;;;;;0.00;0.00;;;;;;;;;;1737102;28;20331;-59
2023/06/15 02:35:37;;;;;;;0.00;0.00;;;;;;;;;;1734829;28;20211;-59
2023/06/15 02:36:28;;;;;;;0.00;0.00;;;;;;;;;;1735501;28;20265;-59
2023/06/15 02:37:20;;;;;;;0.00;0.00;;;;;;;;;;1735432;28;20213;-60
2023/06/15 02:38:11;;;;;;;0.00;0.00;;;;;;;;;;1732165;28;20210;-59
2023/06/15 02:39:02;;;;;;;0.00;0.00;;;;;;;;;;1735424;28;20536;-59
2023/06/15 02:39:55;;;;;;;0.00;0.00;;;;;;;;;;1736546;28;20697;-59
2023/06/15 02:40:46;;;;;;;0.00;0.00;;;;;;;;;;1734878;28;20289;-60
2023/06/15 02:41:38;;;;;;;0.00;0.00;;;;;;;;;;1736973;28;20266;-59
2023/06/15 02:42:29;;;;;;;0.00;0.00;;;;;;;;;;1737399;28;20283;-60
2023/06/15 02:43:21;;;;;;;0.00;0.00;;;;;;;;;;1736907;28;20202;-59
2023/06/15 02:44:14;;;;;;;0.00;0.00;;;;;;;;;;1737483;28;20218;-59
2023/06/15 02:45:07;;;;;;;0.00;0.00;;;;;;;;;;1736422;28;20205;-59
2023/06/15 02:45:58;;;;;;;0.00;0.00;;;;;;;;;;1730253;28;20892;-60
2023/06/15 02:46:50;;;;;;;0.00;0.00;;;;;;;;;;1736296;28;20545;-60
2023/06/15 02:47:42;;;;;;;0.00;0.00;;;;;;;;;;1734629;28;20260;-60
2023/06/15 02:48:34;;;;;;;0.00;0.00;;;;;;;;;;1735166;28;20573;-59
2023/06/15 02:49:26;;;;;;;0.00;0.00;;;;;;;;;;1737748;28;20687;-59
2023/06/15 02:50:18;;;;;;;0.00;0.00;;;;;;;;;;1733562;28;20228;-59
2023/06/15 02:51:09;;;;;;;0.00;0.00;;;;;;;;;;1737643;28;20679;-60
2023/06/15 02:52:01;;;;;;;0.00;0.00;;;;;;;;;;1738152;28;20589;-59
2023/06/15 02:52:53;;;;;;;0.00;0.00;;;;;;;;;;1730845;28;20293;-60
2023/06/15 02:53:45;;;;;;;0.00;0.00;;;;;;;;;;1736459;28;20201;-60
2023/06/15 02:54:36;;;;;;;0.00;0.00;;;;;;;;;;1735417;28;20208;-60
2023/06/15 02:55:28;;;;;;;0.00;0.00;;;;;;;;;;1735653;28;20292;-59
2023/06/15 02:56:21;;;;;;;0.10;0.10;;;;;;;;;;1737627;28;20202;-59
2023/06/15 02:57:13;;;;;;;0.00;0.00;;;;;;;;;;1737088;28;20286;-59
2023/06/15 02:58:04;;;;;;;0.00;0.00;;;;;;;;;;1737620;28;20628;-59
2023/06/15 02:58:56;;;;;;;0.00;0.00;;;;;;;;;;1737119;28;20269;-59
2023/06/15 02:59:49;;;;;;;0.00;0.00;;;;;;;;;;1732606;28;20262;-60
2023/06/15 03:00:42;;;;;;;0.00;0.00;;;;;;;;;;1736554;28;20261;-60
2023/06/15 03:01:38;;;;;;;0.00;0.00;;;;;;;;;;1737127;28;20679;-58
2023/06/15 03:02:30;;;;;;;0.00;0.00;;;;;;;;;;1736905;28;20730;-59
2023/06/15 03:03:27;;;;;;;0.00;0.00;;;;;;;;;;1737090;28;20203;-58
2023/06/15 03:04:21;;;;;;;0.00;0.00;;;;;;;;;;1737489;28;20200;-59
2023/06/15 03:05:13;;;;;;;0.00;0.00;;;;;;;;;;1736496;28;20204;-60
2023/06/15 03:06:08;;;;;;;0.00;0.00;;;;;;;;;;1737646;28;20306;-59
2023/06/15 03:06:59;;;;;;;0.00;0.00;;;;;;;;;;1736270;28;20212;-59
2023/06/15 03:07:52;;;;;;;0.00;0.00;;;;;;;;;;1731109;28;20733;-60
2023/06/15 03:08:44;;;;;;;0.00;0.00;;;;;;;;;;1735769;28;20208;-59
2023/06/15 03:09:36;;;;;;;0.00;0.00;;;;;;;;;;1737772;28;20203;-60
2023/06/15 03:10:27;;;;;;;0.00;0.00;;;;;;;;;;1736062;28;20309;-60
2023/06/15 03:11:19;;;;;;;0.00;0.00;;;;;;;;;;1738854;28;20201;-59
2023/06/15 03:12:10;;;;;;;0.00;0.00;;;;;;;;;;1737970;28;20712;-59
2023/06/15 03:13:02;;;;;;;0.00;0.00;;;;;;;;;;1739249;28;20201;-60
2023/06/15 03:13:53;;;;;;;0.00;0.00;;;;;;;;;;1738335;28;20723;-60
2023/06/15 03:14:50;;;;;;;0.00;0.00;;;;;;;;;;1733907;28;20303;-59
2023/06/15 03:15:42;;;;;;;0.00;0.00;;;;;;;;;;1735949;28;20648;-60
2023/06/15 03:16:39;;;;;;;0.00;0.00;;;;;;;;;;1736460;28;20212;-59
2023/06/15 03:17:32;;;;;;;0.00;0.00;;;;;;;;;;1738407;28;20208;-59
2023/06/15 03:18:24;;;;;;;0.00;0.00;;;;;;;;;;1737836;28;20208;-59
2023/06/15 03:19:16;;;;;;;0.00;0.00;;;;;;;;;;1737499;28;20216;-59
2023/06/15 03:20:10;;;;;;;0.00;0.00;;;;;;;;;;1735207;28;20311;-58
2023/06/15 03:21:01;;;;;;;0.00;0.00;;;;;;;;;;1737533;28;20267;-60
2023/06/15 03:21:55;;;;;;;0.00;0.00;;;;;;;;;;1738749;28;20210;-59
2023/06/15 03:22:48;;;;;;;0.00;0.00;;;;;;;;;;1738542;28;20315;-59
2023/06/15 03:23:41;;;;;;;0.00;0.00;;;;;;;;;;1736266;28;20603;-58
2023/06/15 03:24:32;;;;;;;0.00;0.00;;;;;;;;;;1731985;28;20274;-59
2023/06/15 03:25:25;;;;;;;0.00;0.00;;;;;;;;;;1734551;28;20582;-60
2023/06/15 03:26:16;;;;;;;0.00;0.00;;;;;;;;;;1737595;28;20371;-60
2023/06/15 03:27:10;;;;;;;0.00;0.00;;;;;;;;;;1737621;28;20696;-59
2023/06/15 03:28:01;;;;;;;0.00;0.00;;;;;;;;;;1739009;28;20208;-59
2023/06/15 03:28:57;;;;;;;0.00;0.00;;;;;;;;;;1738160;28;20207;-60
2023/06/15 03:29:49;;;;;;;0.00;0.00;;;;;;;;;;1734079;28;20225;-60
2023/06/15 03:30:41;;;;;;;0.00;0.00;;;;;;;;;;1735816;28;20270;-60
2023/06/15 03:31:40;;;;;;;0.00;0.00;;;;;;;;;;1736256;28;20211;-59
2023/06/15 03:32:33;;;;;;;0.00;0.00;;;;;;;;;;1735034;28;20547;-60
2023/06/15 03:33:24;;;;;;;0.00;0.00;;;;;;;;;;1733988;28;20680;-61
2023/06/15 03:34:17;;;;;;;0.00;0.00;;;;;;;;;;1738879;28;20212;-60
2023/06/15 03:35:12;;;;;;;0.00;0.00;;;;;;;;;;1737769;28;20343;-59
2023/06/15 03:36:04;;;;;;;0.00;0.00;;;;;;;;;;1738490;28;20245;-60
2023/06/15 03:36:56;;;;;;;0.00;0.00;;;;;;;;;;1738389;28;20211;-60
2023/06/15 03:37:47;;;;;;;0.00;0.00;;;;;;;;;;1732920;28;20716;-60
2023/06/15 03:38:39;;;;;;;0.00;0.00;;;;;;;;;;1734894;28;20204;-59
2023/06/15 03:39:30;;;;;;;0.00;0.00;;;;;;;;;;1734863;28;20637;-60
2023/06/15 03:40:22;;;;;;;0.00;0.00;;;;;;;;;;1735783;28;20279;-59
2023/06/15 03:41:13;;;;;;;0.00;0.00;;;;;;;;;;1737905;28;20211;-59
2023/06/15 03:42:06;;;;;;;0.00;0.00;;;;;;;;;;1738055;28;20259;-59
2023/06/15 03:42:57;;;;;;;0.00;0.00;;;;;;;;;;1732630;28;20391;-59
2023/06/15 03:43:49;;;;;;;0.00;0.00;;;;;;;;;;1738120;28;20235;-59
2023/06/15 03:44:40;;;;;;;0.00;0.00;;;;;;;;;;1734296;28;20294;-59
2023/06/15 03:45:32;;;;;;;0.00;0.00;;;;;;;;;;1735872;28;20271;-59
2023/06/15 03:46:23;;;;;;;0.00;0.00;;;;;;;;;;1739368;28;20811;-59
2023/06/15 03:47:16;;;;;;;0.00;0.00;;;;;;;;;;1738741;28;20673;-59
2023/06/15 03:48:07;;;;;;;0.00;0.00;;;;;;;;;;1738657;28;20261;-58
2023/06/15 03:48:59;;;;;;;0.00;0.00;;;;;;;;;;1739031;28;20231;-59
2023/06/15 03:49:50;;;;;;;0.00;0.00;;;;;;;;;;1738794;28;20219;-59
2023/06/15 03:50:42;;;;;;;0.00;0.00;;;;;;;;;;1737828;28;20235;-59
2023/06/15 03:51:33;;;;;;;0.00;0.00;;;;;;;;;;1736666;28;20295;-59
2023/06/15 03:52:26;;;;;;;0.00;0.00;;;;;;;;;;1739839;28;20219;-59
2023/06/15 03:53:17;;;;;;;0.00;0.00;;;;;;;;;;1738496;28;20204;-59
2023/06/15 03:54:09;;;;;;;0.00;0.00;;;;;;;;;;1738769;28;20203;-59
2023/06/15 03:55:00;;;;;;;0.00;0.00;;;;;;;;;;1738398;28;20583;-59
2023/06/15 03:55:52;;;;;;;0.00;0.00;;;;;;;;;;1737836;28;20756;-60
2023/06/15 03:56:44;;;;;;;0.00;0.00;;;;;;;;;;1738250;28;20264;-60
2023/06/15 03:57:36;;;;;;;0.00;0.00;;;;;;;;;;1738969;28;20196;-59
2023/06/15 03:58:27;;;;;;;0.03;0.03;;;;;;;;;;1737084;28;20215;-59
2023/06/15 03:59:18;;;;;;;0.00;0.00;;;;;;;;;;1738684;28;20209;-59
2023/06/15 04:00:10;;;;;;;0.00;0.00;;;;;;;;;;1738150;28;20207;-57
2023/06/15 04:01:04;;;;;;;0.00;0.00;;;;;;;;;;1738614;28;20227;-59
2023/06/15 04:01:56;;;;;;;0.00;0.00;;;;;;;;;;1738150;28;20215;-59
2023/06/15 04:02:49;;;;;;;0.00;0.00;;;;;;;;;;1735812;28;20246;-60
2023/06/15 04:03:41;;;;;;;0.00;0.00;;;;;;;;;;1737498;28;20218;-60
2023/06/15 04:04:32;;;;;;;0.00;0.00;;;;;;;;;;1738564;28;20211;-60
2023/06/15 04:05:24;;;;;;;0.00;0.00;;;;;;;;;;1735410;28;20642;-60
2023/06/15 04:06:16;;;;;;;0.00;0.00;;;;;;;;;;1737061;28;20266;-61
2023/06/15 04:07:08;;;;;;;0.00;0.00;;;;;;;;;;1737511;28;21007;-59
2023/06/15 04:08:01;;;;;;;0.00;0.00;;;;;;;;;;1732008;28;20215;-60
2023/06/15 04:08:53;;;;;;;0.00;0.00;;;;;;;;;;1737869;28;20287;-60
2023/06/15 04:09:44;;;;;;;0.00;0.00;;;;;;;;;;1734060;28;20266;-60
2023/06/15 04:10:36;;;;;;;0.00;0.00;;;;;;;;;;1735272;28;20233;-60
2023/06/15 04:11:27;;;;;;;0.00;0.00;;;;;;;;;;1736701;28;20212;-60
2023/06/15 04:12:19;;;;;;;0.00;0.00;;;;;;;;;;1737774;28;20338;-60
2023/06/15 04:13:10;;;;;;;0.00;0.00;;;;;;;;;;1737363;28;20204;-59
2023/06/15 04:14:02;;;;;;;0.00;0.00;;;;;;;;;;1738601;28;20231;-59
2023/06/15 04:14:53;;;;;;;0.00;0.00;;;;;;;;;;1737788;28;20220;-59
2023/06/15 04:15:45;;;;;;;0.00;0.00;;;;;;;;;;1736390;28;20224;-59
2023/06/15 04:16:36;;;;;;;0.00;0.00;;;;;;;;;;1738095;28;20211;-60
2023/06/15 04:17:28;;;;;;;0.00;0.00;;;;;;;;;;1735477;28;20204;-59
2023/06/15 04:18:21;;;;;;;0.00;0.00;;;;;;;;;;1734013;28;21842;-59
2023/06/15 04:19:13;;;;;;;0.00;0.00;;;;;;;;;;1738293;28;20204;-59
2023/06/15 04:20:05;;;;;;;0.00;0.00;;;;;;;;;;1738212;28;20212;-59
2023/06/15 04:20:57;;;;;;;0.00;0.00;;;;;;;;;;1736455;28;20232;-59
2023/06/15 04:21:48;;;;;;;0.00;0.00;;;;;;;;;;1738746;28;20267;-60
2023/06/15 04:22:40;;;;;;;0.00;0.00;;;;;;;;;;1737543;28;20269;-59
2023/06/15 04:23:31;;;;;;;0.00;0.00;;;;;;;;;;1737720;28;20215;-59
2023/06/15 04:24:23;;;;;;;0.00;0.00;;;;;;;;;;1738515;28;20196;-59
2023/06/15 04:25:15;;;;;;;0.00;0.00;;;;;;;;;;1735613;28;20805;-60
2023/06/15 04:26:08;;;;;;;0.00;0.00;;;;;;;;;;1738144;28;20242;-57
2023/06/15 04:27:00;;;;;;;0.00;0.00;;;;;;;;;;1738353;28;20210;-59
2023/06/15 04:27:53;;;;;;;0.00;0.00;;;;;;;;;;1738469;28;20217;-59
2023/06/15 04:28:45;;;;;;;0.00;0.00;;;;;;;;;;1737884;28;20295;-59
2023/06/15 04:29:37;;;;;;;0.00;0.00;;;;;;;;;;1738287;28;20571;-59
2023/06/15 04:30:28;;;;;;;0.00;0.00;;;;;;;;;;1736875;28;20262;-59
2023/06/15 04:31:21;;;;;;;0.00;0.00;;;;;;;;;;1738280;28;20254;-59
2023/06/15 04:32:12;;;;;;;0.00;0.00;;;;;;;;;;1736743;28;20266;-57
2023/06/15 04:33:04;;;;;;;0.00;0.00;;;;;;;;;;1732301;28;20218;-59
2023/06/15 04:33:58;;;;;;;0.00;0.00;;;;;;;;;;1737791;28;20582;-59
2023/06/15 04:34:54;;;;;;;0.00;0.00;;;;;;;;;;1737952;28;20498;-59
2023/06/15 04:35:45;;;;;;;0.00;0.00;;;;;;;;;;1736198;28;20240;-59
2023/06/15 04:36:39;;;;;;;0.00;0.00;;;;;;;;;;1736039;28;20200;-59
2023/06/15 04:37:30;;;;;;;0.00;0.00;;;;;;;;;;1734992;28;20277;-59
2023/06/15 04:38:22;;;;;;;0.00;0.00;;;;;;;;;;1733815;28;20213;-59
2023/06/15 04:39:13;;;;;;;0.00;0.00;;;;;;;;;;1735479;28;20266;-59
2023/06/15 04:40:09;;;;;;;0.00;0.00;;;;;;;;;;1737838;28;20253;-59
2023/06/15 04:41:00;;;;;;;0.00;0.00;;;;;;;;;;1736821;28;20318;-59
2023/06/15 04:41:52;;;;;;;0.00;0.00;;;;;;;;;;1737346;28;20222;-59
2023/06/15 04:42:44;;;;;;;0.00;0.00;;;;;;;;;;1738183;28;20723;-59
2023/06/15 04:43:36;;;;;;;0.00;0.00;;;;;;;;;;1737048;28;20206;-60
2023/06/15 04:44:27;;;;;;;0.00;0.00;;;;;;;;;;1735466;28;20223;-59
2023/06/15 04:45:19;;;;;;;0.00;0.00;;;;;;;;;;1735336;28;20401;-60
2023/06/15 04:46:11;;;;;;;0.00;0.00;;;;;;;;;;1738208;28;20203;-59
2023/06/15 04:47:04;;;;;;;0.00;0.00;;;;;;;;;;1738095;28;20199;-59
2023/06/15 04:47:55;;;;;;;0.00;0.00;;;;;;;;;;1738226;28;20472;-60
2023/06/15 04:48:47;;;;;;;0.00;0.00;;;;;;;;;;1736960;28;20207;-59
2023/06/15 04:49:42;;;;;;;0.00;0.00;;;;;;;;;;1734183;28;20211;-59
2023/06/15 04:50:35;;;;;;;0.00;0.00;;;;;;;;;;1735138;28;20238;-59
2023/06/15 04:51:26;;;;;;;0.00;0.00;;;;;;;;;;1736456;28;20291;-59
2023/06/15 04:52:18;;;;;;;0.00;0.00;;;;;;;;;;1737497;28;20218;-59
2023/06/15 04:53:09;;;;;;;0.00;0.00;;;;;;;;;;1738199;28;20677;-59
2023/06/15 04:54:01;;;;;;;0.00;0.00;;;;;;;;;;1738233;28;20217;-59
2023/06/15 04:54:52;;;;;;;0.00;0.00;;;;;;;;;;1737462;28;20263;-59
2023/06/15 04:55:44;;;;;;;0.00;0.00;;;;;;;;;;1737220;28;20238;-59
2023/06/15 04:56:35;;;;;;;0.00;0.00;;;;;;;;;;1737544;28;20312;-59
2023/06/15 04:57:28;;;;;;;0.00;0.00;;;;;;;;;;1735411;28;20717;-59
2023/06/15 04:58:19;;;;;;;0.00;0.00;;;;;;;;;;1733625;28;20705;-59
2023/06/15 04:59:11;;;;;;;0.00;0.00;;;;;;;;;;1737986;28;20203;-59
2023/06/15 05:00:04;;;;;;;0.00;0.00;;;;;;;;;;1738052;28;20233;-59
2023/06/15 05:00:56;;;;;;;0.00;0.00;;;;;;;;;;1735335;28;20218;-59
2023/06/15 05:01:47;;;;;;;0.00;0.00;;;;;;;;;;1737539;28;20207;-59
2023/06/15 05:02:39;;;;;;;0.00;0.00;;;;;;;;;;1732968;28;20246;-59
2023/06/15 05:03:31;;;;;;;0.00;0.00;;;;;;;;;;1734620;28;20216;-59
2023/06/15 05:04:23;;;;;;;0.00;0.00;;;;;;;;;;1736055;28;20721;-59
2023/06/15 05:05:15;;;;;;;0.00;0.00;;;;;;;;;;1733464;28;20211;-60
2023/06/15 05:06:07;;;;;;;0.00;0.00;;;;;;;;;;1738063;28;20535;-59
2023/06/15 05:06:59;;;;;;;0.00;0.00;;;;;;;;;;1736305;28;20680;-59
2023/06/15 05:07:51;;;;;;;0.00;0.00;;;;;;;;;;1737185;28;20434;-59
2023/06/15 05:08:42;;;;;;;0.00;0.00;;;;;;;;;;1737326;28;20253;-59
2023/06/15 05:09:34;;;;;;;0.00;0.00;;;;;;;;;;1734539;28;20208;-59
2023/06/15 05:10:25;;;;;;;0.00;0.00;;;;;;;;;;1734917;28;20759;-61
2023/06/15 05:11:17;;;;;;;0.00;0.00;;;;;;;;;;1738069;28;20682;-60
2023/06/15 05:12:09;;;;;;;0.00;0.00;;;;;;;;;;1737146;28;20521;-57
2023/06/15 05:13:01;;;;;;;0.00;0.00;;;;;;;;;;1731439;28;20200;-60